createdAt,value
2023-04-26T12:07:34.532Z,1.00
2023-04-26T12:10:14.037Z,1.00
2023-04-26T12:12:45.273Z,1.30
2023-04-26T12:15:13.904Z,1.10
2023-04-26T12:17:52.487Z,0.90
2023-04-26T12:20:19.972Z,1.10
2023-04-26T12:23:02.805Z,1.30
2023-04-26T12:25:30.283Z,1.02
2023-04-26T12:27:56.888Z,1.20
2023-04-26T12:30:23.619Z,0.90
2023-04-26T12:32:50.410Z,1.05
2023-04-26T12:35:16.938Z,1.40
2023-04-26T12:37:43.397Z,1.27
2023-04-26T12:40:10.765Z,1.20
2023-04-26T12:42:37.352Z,1.27
2023-04-26T12:45:03.982Z,1.20
2023-04-26T12:47:31.812Z,1.25
2023-04-26T12:50:00.999Z,1.20
2023-04-26T12:52:28.227Z,1.38
2023-04-26T12:54:54.624Z,1.35
2023-04-26T12:57:21.837Z,1.40
2023-04-26T12:59:48.304Z,1.30
2023-04-26T13:02:14.820Z,1.40
2023-04-26T13:04:41.998Z,1.27
2023-04-26T13:07:08.905Z,1.60
2023-04-26T13:09:35.244Z,1.35
2023-04-26T13:12:01.651Z,1.00
2023-04-26T13:14:28.034Z,1.20
2023-04-26T13:16:54.485Z,1.30
2023-04-26T13:19:20.940Z,1.60
2023-04-26T13:21:47.365Z,1.35
2023-04-26T13:24:13.793Z,1.63
2023-04-26T13:26:40.183Z,1.60
2023-04-26T13:29:06.624Z,1.40
2023-04-26T13:31:33.004Z,1.63
2023-04-26T13:33:59.480Z,1.27
2023-04-26T13:36:26.165Z,1.58
2023-04-26T13:38:52.581Z,1.25
2023-04-26T13:41:19.046Z,1.42
2023-04-26T13:43:45.581Z,1.35
2023-04-26T13:46:12.105Z,1.60
2023-04-26T13:48:38.439Z,1.50
2023-04-26T13:51:06.962Z,1.70
2023-04-26T13:53:33.843Z,1.58
2023-04-26T13:56:00.263Z,1.60
2023-04-26T13:58:26.633Z,1.25
2023-04-26T14:00:53.018Z,1.30
2023-04-26T14:03:19.597Z,1.40
2023-04-26T14:05:46.211Z,1.38
2023-04-26T14:08:12.741Z,1.70
2023-04-26T14:10:40.276Z,1.70
2023-04-26T14:13:06.808Z,1.70
2023-04-26T14:15:33.130Z,1.80
2023-04-26T14:17:59.558Z,1.35
2023-04-26T14:20:26.108Z,1.42
2023-04-26T14:22:52.521Z,1.30
2023-04-26T14:25:19.054Z,1.90
2023-04-26T14:27:45.373Z,1.50
2023-04-26T14:30:12.069Z,1.73
2023-04-26T14:32:38.533Z,1.65
2023-04-26T14:35:05.451Z,1.50
2023-04-26T14:37:31.801Z,1.48
2023-04-26T14:39:58.243Z,1.50
2023-04-26T14:42:24.679Z,1.50
2023-04-26T14:44:51.269Z,1.77
2023-04-26T14:47:17.768Z,2.20
2023-04-26T14:49:44.191Z,1.52
2023-04-26T14:52:10.672Z,1.60
2023-04-26T14:54:38.836Z,1.27
2023-04-26T14:57:05.207Z,1.10
2023-04-26T14:59:31.599Z,1.75
2023-04-26T15:01:58.074Z,1.58
2023-04-26T15:04:24.882Z,1.65
2023-04-26T15:06:51.619Z,1.67
2023-04-26T15:09:18.316Z,2.80
2023-04-26T15:11:44.669Z,1.88
2023-04-26T15:14:11.098Z,4.32
2023-04-26T15:16:37.618Z,4.35
2023-04-26T15:19:04.059Z,2.05
2023-04-26T15:21:31.481Z,1.30
2023-04-26T15:23:57.954Z,1.38
2023-04-26T15:26:24.437Z,1.88
2023-04-26T15:28:51.207Z,1.38
2023-04-26T15:31:17.566Z,1.60
2023-04-26T15:33:44.014Z,1.35
2023-04-26T15:36:10.421Z,1.33
2023-04-26T15:38:36.905Z,1.15
2023-04-26T15:41:03.552Z,1.40
2023-04-26T15:43:29.996Z,2.15
2023-04-26T15:45:56.620Z,1.55
2023-04-26T15:48:23.078Z,1.48
2023-04-26T15:50:50.604Z,1.30
2023-04-26T15:53:17.335Z,1.50
2023-04-26T15:55:43.972Z,1.50
2023-04-26T15:58:10.317Z,1.50
2023-04-26T16:00:37.091Z,1.48
2023-04-26T16:03:03.678Z,1.40
2023-04-26T16:05:31.682Z,1.50
2023-04-26T16:07:59.451Z,1.90
2023-04-26T16:10:25.956Z,2.58
2023-04-26T16:12:52.355Z,1.33
2023-04-26T16:15:18.752Z,1.50
2023-04-26T16:17:45.185Z,1.60
2023-04-26T16:20:11.740Z,2.78
2023-04-26T16:22:38.150Z,1.75
2023-04-26T16:25:06.761Z,1.38
2023-04-26T16:27:33.279Z,1.40
2023-04-26T16:29:59.683Z,1.17
2023-04-26T16:32:26.378Z,1.42
2023-04-26T16:34:53.156Z,1.60
2023-04-26T16:37:19.868Z,1.30
2023-04-26T16:39:46.396Z,1.40
2023-04-26T16:42:12.774Z,1.25
2023-04-26T16:44:40.344Z,1.35
2023-04-26T16:47:06.799Z,1.30
2023-04-26T16:49:33.215Z,1.65
2023-04-26T16:51:59.627Z,1.50
2023-04-26T16:54:26.422Z,1.70
2023-04-26T16:56:53.109Z,1.45
2023-04-26T16:59:19.877Z,1.65
2023-04-26T17:01:47.320Z,1.40
2023-04-26T17:04:14.399Z,1.60
2023-04-26T17:06:41.199Z,1.50
2023-04-26T17:09:08.709Z,1.70
2023-04-26T17:11:37.267Z,2.33
2023-04-26T17:14:04.421Z,1.60
2023-04-26T17:16:31.133Z,1.83
2023-04-26T17:18:58.330Z,1.30
2023-04-26T17:21:24.934Z,1.80
2023-04-26T17:23:51.322Z,2.92
2023-04-26T17:26:18.017Z,3.40
2023-04-26T17:28:44.422Z,1.50
2023-04-26T17:31:10.812Z,1.70
2023-04-26T17:33:37.219Z,1.45
2023-04-26T17:36:03.889Z,1.30
2023-04-26T17:38:30.456Z,2.22
2023-04-26T17:40:56.953Z,1.42
2023-04-26T17:43:23.537Z,1.40
2023-04-26T17:45:49.996Z,1.63
2023-04-26T17:48:17.005Z,1.30
2023-04-26T17:50:43.732Z,1.65
2023-04-26T17:53:10.267Z,1.48
2023-04-26T17:55:37.361Z,1.40
2023-04-26T17:58:03.847Z,1.58
2023-04-26T18:00:30.293Z,1.75
2023-04-26T18:02:57.992Z,1.60
2023-04-26T18:05:25.086Z,1.50
2023-04-26T18:07:51.805Z,1.35
2023-04-26T18:10:18.294Z,1.60
2023-04-26T18:12:44.652Z,1.45
2023-04-26T18:15:11.163Z,1.55
2023-04-26T18:17:37.538Z,2.20
2023-04-26T18:20:04.823Z,2.15
2023-04-26T18:22:31.175Z,1.50
2023-04-26T18:24:57.662Z,1.70
2023-04-26T18:27:24.243Z,1.30
2023-04-26T18:29:50.587Z,1.50
2023-04-26T18:32:17.076Z,2.00
2023-04-26T18:34:44.126Z,1.63
2023-04-26T18:37:10.582Z,1.85
2023-04-26T18:39:36.996Z,1.48
2023-04-26T18:42:03.808Z,1.90
2023-04-26T18:44:30.397Z,1.90
2023-04-26T18:46:56.802Z,1.48
2023-04-26T18:49:24.349Z,1.40
2023-04-26T18:51:50.718Z,2.03
2023-04-26T18:54:17.262Z,1.80
2023-04-26T18:56:43.970Z,1.83
2023-04-26T18:59:10.768Z,1.50
2023-04-26T19:01:37.230Z,1.30
2023-04-26T19:04:03.835Z,2.15
2023-04-26T19:06:31.455Z,1.20
2023-04-26T19:08:58.791Z,1.70
2023-04-26T19:11:25.159Z,1.30
2023-04-26T19:13:51.667Z,1.73
2023-04-26T19:16:18.179Z,1.30
2023-04-26T19:18:44.858Z,2.30
2023-04-26T19:21:11.358Z,1.98
2023-04-26T19:23:37.741Z,1.55
2023-04-26T19:26:08.690Z,1.60
2023-04-26T19:28:35.740Z,1.52
2023-04-26T19:31:02.143Z,1.58
2023-04-26T19:33:28.656Z,1.48
2023-04-26T19:35:56.500Z,1.75
2023-04-26T19:38:23.974Z,1.88
2023-04-26T19:40:53.907Z,1.42
2023-04-26T19:43:20.643Z,1.65
2023-04-26T19:45:47.150Z,1.60
2023-04-26T19:48:13.683Z,1.50
2023-04-26T19:50:41.605Z,1.83
2023-04-26T19:53:13.054Z,1.95
2023-04-26T19:55:41.536Z,1.67
2023-04-26T19:58:08.380Z,1.70
2023-04-26T20:00:39.776Z,1.75
2023-04-26T20:03:06.560Z,1.70
2023-04-26T20:05:33.621Z,2.00
2023-04-26T20:08:00.650Z,1.30
2023-04-26T20:10:30.598Z,1.70
2023-04-26T20:12:56.940Z,2.30
2023-04-26T20:17:49.766Z,2.70
2023-04-26T20:20:16.177Z,2.55
2023-04-26T20:22:42.641Z,2.40
2023-04-26T20:25:09.261Z,2.97
2023-04-26T20:27:35.806Z,2.20
2023-04-26T20:30:02.916Z,2.08
2023-04-26T20:32:29.387Z,2.15
2023-04-26T20:34:56.205Z,2.40
2023-04-26T20:37:22.653Z,2.10
2023-04-26T20:39:49.468Z,2.20
2023-04-26T20:42:16.067Z,2.20
2023-04-26T20:44:42.843Z,2.40
2023-04-26T20:47:09.261Z,2.35
2023-04-26T20:52:02.189Z,2.63
2023-04-26T20:54:28.590Z,2.67
2023-04-26T20:59:21.332Z,2.50
2023-04-26T21:04:14.302Z,2.47
2023-04-26T21:06:40.834Z,2.47
2023-04-26T21:11:33.939Z,2.08
2023-04-26T21:14:00.943Z,1.88
2023-04-26T21:16:27.479Z,2.45
2023-04-26T21:18:53.944Z,1.70
2023-04-26T21:23:46.917Z,1.90
2023-04-26T21:26:13.444Z,1.98
2023-04-26T21:28:39.811Z,2.42
2023-04-26T21:33:34.209Z,1.98
2023-04-26T21:36:00.857Z,2.42
2023-04-26T21:38:27.452Z,3.22
2023-04-26T21:40:53.814Z,3.35
2023-04-26T21:43:24.744Z,2.72
2023-04-26T21:45:52.324Z,2.28
2023-04-26T21:48:18.700Z,2.90
2023-04-26T21:50:48.837Z,1.90
2023-04-26T21:53:15.925Z,1.90
2023-04-26T21:55:42.274Z,2.05
2023-04-26T21:58:08.585Z,1.98
2023-04-26T22:00:35.131Z,2.05
2023-04-26T22:03:01.706Z,1.38
2023-04-26T22:05:29.201Z,1.90
2023-04-26T22:07:55.851Z,2.00
2023-04-26T22:10:22.266Z,1.70
2023-04-26T22:15:15.019Z,1.60
2023-04-26T22:17:41.476Z,1.85
2023-04-26T22:22:34.474Z,2.13
2023-04-26T22:25:00.912Z,2.00
2023-04-26T22:27:27.488Z,1.73
2023-04-26T22:29:53.825Z,1.95
2023-04-26T22:32:20.359Z,1.75
2023-04-26T22:34:46.760Z,1.73
2023-04-26T22:37:20.314Z,2.00
2023-04-26T22:39:47.504Z,2.05
2023-04-26T22:44:40.105Z,2.17
2023-04-26T22:47:06.548Z,1.80
2023-04-26T22:49:32.930Z,1.90
2023-04-26T22:52:07.930Z,1.55
2023-04-26T22:54:38.436Z,2.15
2023-04-26T22:59:34.139Z,2.13
2023-04-26T23:02:01.468Z,2.10
2023-04-26T23:04:28.051Z,1.85
2023-04-26T23:06:54.455Z,1.85
2023-04-26T23:09:20.931Z,2.08
2023-04-26T23:14:15.694Z,2.20
2023-04-26T23:16:42.372Z,1.95
2023-04-26T23:19:09.539Z,2.47
2023-04-26T23:21:35.998Z,2.08
2023-04-26T23:24:02.381Z,2.28
2023-04-26T23:26:28.795Z,2.13
2023-04-26T23:28:55.125Z,2.08
2023-04-26T23:31:21.603Z,2.30
2023-04-26T23:33:48.182Z,2.40
2023-04-26T23:36:14.620Z,2.58
2023-04-26T23:38:41.273Z,2.50
2023-04-26T23:41:07.714Z,2.25
2023-04-26T23:43:34.102Z,2.30
2023-04-26T23:46:00.573Z,2.28
2023-04-26T23:50:53.758Z,2.00
2023-04-26T23:53:20.138Z,2.28
2023-04-26T23:55:46.789Z,2.13
2023-04-26T23:58:13.125Z,2.33
